sensor_id;sensor_type;location;lat;lon;timestamp;temperature;humidity
19342;DHT22;9807;48.258;12.690;2022-11-18T00:01:44;9.30;99.90
19342;DHT22;9807;48.258;12.690;2022-11-18T00:04:10;9.30;99.90
19342;DHT22;9807;48.258;12.690;2022-11-18T00:06:36;9.40;99.90
19342;DHT22;9807;48.258;12.690;2022-11-18T00:09:02;9.50;99.90
19342;DHT22;9807;48.258;12.690;2022-11-18T00:11:28;9.50;99.90
19342;DHT22;9807;48.258;12.690;2022-11-18T00:14:19;9.50;99.90
19342;DHT22;9807;48.258;12.690;2022-11-18T00:16:56;9.40;99.90
19342;DHT22;9807;48.258;12.690;2022-11-18T00:19:27;9.00;99.90
19342;DHT22;9807;48.258;12.690;2022-11-18T00:21:54;8.60;99.90
19342;DHT22;9807;48.258;12.690;2022-11-18T00:24:20;8.30;99.90
19342;DHT22;9807;48.258;12.690;2022-11-18T00:26:47;8.10;99.90
19342;DHT22;9807;48.258;12.690;2022-11-18T00:29:13;8.00;99.90
19342;DHT22;9807;48.258;12.690;2022-11-18T00:31:39;8.00;99.90
19342;DHT22;9807;48.258;12.690;2022-11-18T00:34:11;8.00;99.90
19342;DHT22;9807;48.258;12.690;2022-11-18T00:36:38;8.20;99.90
19342;DHT22;9807;48.258;12.690;2022-11-18T00:39:04;8.50;99.90
19342;DHT22;9807;48.258;12.690;2022-11-18T00:41:32;8.80;99.90
19342;DHT22;9807;48.258;12.690;2022-11-18T00:44:16;9.10;99.90
19342;DHT22;9807;48.258;12.690;2022-11-18T00:46:42;9.30;99.90
19342;DHT22;9807;48.258;12.690;2022-11-18T00:49:09;9.60;99.90
19342;DHT22;9807;48.258;12.690;2022-11-18T00:51:35;9.90;99.90
19342;DHT22;9807;48.258;12.690;2022-11-18T00:54:03;10.00;99.90
19342;DHT22;9807;48.258;12.690;2022-11-18T00:56:29;10.20;99.90
19342;DHT22;9807;48.258;12.690;2022-11-18T00:58:56;10.30;99.90
19342;DHT22;9807;48.258;12.690;2022-11-18T01:01:22;10.40;99.90
19342;DHT22;9807;48.258;12.690;2022-11-18T01:03:51;10.40;99.90
19342;DHT22;9807;48.258;12.690;2022-11-18T01:06:21;10.50;99.90
19342;DHT22;9807;48.258;12.690;2022-11-18T01:09:25;10.40;99.90
19342;DHT22;9807;48.258;12.690;2022-11-18T01:11:51;10.30;99.90
19342;DHT22;9807;48.258;12.690;2022-11-18T01:14:35;10.00;99.90
19342;DHT22;9807;48.258;12.690;2022-11-18T01:17:04;9.40;99.90
19342;DHT22;9807;48.258;12.690;2022-11-18T01:19:48;9.10;99.90
19342;DHT22;9807;48.258;12.690;2022-11-18T01:22:37;9.10;99.90
19342;DHT22;9807;48.258;12.690;2022-11-18T01:25:08;9.40;99.90
19342;DHT22;9807;48.258;12.690;2022-11-18T01:27:33;9.70;99.90
19342;DHT22;9807;48.258;12.690;2022-11-18T01:30:00;9.90;99.90
19342;DHT22;9807;48.258;12.690;2022-11-18T01:32:49;10.20;99.90
19342;DHT22;9807;48.258;12.690;2022-11-18T01:35:15;10.40;99.90
19342;DHT22;9807;48.258;12.690;2022-11-18T01:37:42;10.50;99.90
19342;DHT22;9807;48.258;12.690;2022-11-18T01:40:09;10.50;99.90
19342;DHT22;9807;48.258;12.690;2022-11-18T01:42:36;10.60;99.90
19342;DHT22;9807;48.258;12.690;2022-11-18T01:47:46;10.70;99.90
19342;DHT22;9807;48.258;12.690;2022-11-18T01:50:15;10.50;99.90
19342;DHT22;9807;48.258;12.690;2022-11-18T01:52:43;10.60;99.90
19342;DHT22;9807;48.258;12.690;2022-11-18T01:55:13;10.70;99.90
19342;DHT22;9807;48.258;12.690;2022-11-18T01:57:41;10.40;99.90
19342;DHT22;9807;48.258;12.690;2022-11-18T02:00:08;9.90;99.90
19342;DHT22;9807;48.258;12.690;2022-11-18T02:02:36;9.40;99.90
19342;DHT22;9807;48.258;12.690;2022-11-18T02:05:05;9.30;99.90
19342;DHT22;9807;48.258;12.690;2022-11-18T02:07:39;9.50;99.90
19342;DHT22;9807;48.258;12.690;2022-11-18T02:10:08;9.80;99.90
19342;DHT22;9807;48.258;12.690;2022-11-18T02:12:35;10.10;99.90
19342;DHT22;9807;48.258;12.690;2022-11-18T02:15:02;10.30;99.90
19342;DHT22;9807;48.258;12.690;2022-11-18T02:17:50;10.50;99.90
19342;DHT22;9807;48.258;12.690;2022-11-18T02:20:28;10.60;99.90
19342;DHT22;9807;48.258;12.690;2022-11-18T02:26:11;10.80;99.90
19342;DHT22;9807;48.258;12.690;2022-11-18T02:29:11;10.80;99.90
19342;DHT22;9807;48.258;12.690;2022-11-18T02:31:56;10.90;99.90
19342;DHT22;9807;48.258;12.690;2022-11-18T02:39:57;10.80;99.90
19342;DHT22;9807;48.258;12.690;2022-11-18T02:42:29;10.80;99.90
19342;DHT22;9807;48.258;12.690;2022-11-18T02:45:04;10.90;99.90
19342;DHT22;9807;48.258;12.690;2022-11-18T02:47:34;10.90;99.90
19342;DHT22;9807;48.258;12.690;2022-11-18T02:50:05;10.80;99.90
19342;DHT22;9807;48.258;12.690;2022-11-18T02:52:34;10.60;99.90
19342;DHT22;9807;48.258;12.690;2022-11-18T02:55:06;10.30;99.90
19342;DHT22;9807;48.258;12.690;2022-11-18T02:57:35;10.00;99.90
19342;DHT22;9807;48.258;12.690;2022-11-18T03:00:03;10.00;99.90
19342;DHT22;9807;48.258;12.690;2022-11-18T03:02:49;10.20;99.90
19342;DHT22;9807;48.258;12.690;2022-11-18T03:05:28;10.30;99.90
19342;DHT22;9807;48.258;12.690;2022-11-18T03:07:59;10.50;99.90
19342;DHT22;9807;48.258;12.690;2022-11-18T03:10:33;10.60;99.90
19342;DHT22;9807;48.258;12.690;2022-11-18T03:13:13;10.70;99.90
19342;DHT22;9807;48.258;12.690;2022-11-18T03:16:24;10.80;99.90
19342;DHT22;9807;48.258;12.690;2022-11-18T03:21:40;10.80;99.90
19342;DHT22;9807;48.258;12.690;2022-11-18T03:24:16;10.70;99.90
19342;DHT22;9807;48.258;12.690;2022-11-18T03:26:49;10.20;99.90
19342;DHT22;9807;48.258;12.690;2022-11-18T03:29:28;9.90;99.90
19342;DHT22;9807;48.258;12.690;2022-11-18T03:32:01;9.70;99.90
19342;DHT22;9807;48.258;12.690;2022-11-18T03:34:37;9.70;99.90
19342;DHT22;9807;48.258;12.690;2022-11-18T03:37:08;9.70;99.90
19342;DHT22;9807;48.258;12.690;2022-11-18T03:39:38;9.60;99.90
19342;DHT22;9807;48.258;12.690;2022-11-18T03:42:14;9.70;99.90
19342;DHT22;9807;48.258;12.690;2022-11-18T03:44:46;9.90;99.90
19342;DHT22;9807;48.258;12.690;2022-11-18T03:47:30;10.10;99.90
19342;DHT22;9807;48.258;12.690;2022-11-18T03:50:21;10.20;99.90
19342;DHT22;9807;48.258;12.690;2022-11-18T03:52:49;10.40;99.90
19342;DHT22;9807;48.258;12.690;2022-11-18T03:55:19;10.50;99.90
19342;DHT22;9807;48.258;12.690;2022-11-18T04:00:47;10.70;99.90
19342;DHT22;9807;48.258;12.690;2022-11-18T04:03:13;10.80;99.90
19342;DHT22;9807;48.258;12.690;2022-11-18T04:05:41;10.80;99.90
19342;DHT22;9807;48.258;12.690;2022-11-18T04:08:16;10.90;99.90
19342;DHT22;9807;48.258;12.690;2022-11-18T04:10:51;10.90;99.90
19342;DHT22;9807;48.258;12.690;2022-11-18T04:13:27;10.90;99.90
19342;DHT22;9807;48.258;12.690;2022-11-18T04:15:59;10.90;99.90
19342;DHT22;9807;48.258;12.690;2022-11-18T04:18:25;10.90;99.90
19342;DHT22;9807;48.258;12.690;2022-11-18T04:20:52;10.80;99.90
19342;DHT22;9807;48.258;12.690;2022-11-18T04:23:18;10.80;99.90
19342;DHT22;9807;48.258;12.690;2022-11-18T04:25:44;10.60;99.90
19342;DHT22;9807;48.258;12.690;2022-11-18T04:28:10;10.60;99.90
19342;DHT22;9807;48.258;12.690;2022-11-18T04:30:36;10.60;99.90
19342;DHT22;9807;48.258;12.690;2022-11-18T04:33:02;10.60;99.90
19342;DHT22;9807;48.258;12.690;2022-11-18T04:35:28;10.60;99.90
19342;DHT22;9807;48.258;12.690;2022-11-18T04:37:54;10.50;99.90
19342;DHT22;9807;48.258;12.690;2022-11-18T04:40:20;10.50;99.90
19342;DHT22;9807;48.258;12.690;2022-11-18T04:42:46;10.40;99.90
19342;DHT22;9807;48.258;12.690;2022-11-18T04:45:11;10.50;99.90
19342;DHT22;9807;48.258;12.690;2022-11-18T04:47:38;10.60;99.90
19342;DHT22;9807;48.258;12.690;2022-11-18T04:50:07;10.50;99.90
19342;DHT22;9807;48.258;12.690;2022-11-18T04:52:34;10.50;99.90
19342;DHT22;9807;48.258;12.690;2022-11-18T04:55:00;10.40;99.90
19342;DHT22;9807;48.258;12.690;2022-11-18T04:57:26;10.40;99.90
19342;DHT22;9807;48.258;12.690;2022-11-18T04:59:52;10.50;99.90
19342;DHT22;9807;48.258;12.690;2022-11-18T05:02:18;10.30;99.90
19342;DHT22;9807;48.258;12.690;2022-11-18T05:04:44;10.10;99.90
19342;DHT22;9807;48.258;12.690;2022-11-18T05:07:13;9.90;99.90
19342;DHT22;9807;48.258;12.690;2022-11-18T05:09:40;9.70;99.90
19342;DHT22;9807;48.258;12.690;2022-11-18T05:12:13;9.30;99.90
19342;DHT22;9807;48.258;12.690;2022-11-18T05:14:57;9.10;99.90
19342;DHT22;9807;48.258;12.690;2022-11-18T05:17:23;9.00;99.90
19342;DHT22;9807;48.258;12.690;2022-11-18T05:19:49;8.90;99.90
19342;DHT22;9807;48.258;12.690;2022-11-18T05:22:15;8.90;99.90
19342;DHT22;9807;48.258;12.690;2022-11-18T05:24:41;8.70;99.90
19342;DHT22;9807;48.258;12.690;2022-11-18T05:27:08;8.60;99.90
19342;DHT22;9807;48.258;12.690;2022-11-18T05:29:34;8.50;99.90
19342;DHT22;9807;48.258;12.690;2022-11-18T05:31:59;8.40;99.90
19342;DHT22;9807;48.258;12.690;2022-11-18T05:34:25;8.30;99.90
19342;DHT22;9807;48.258;12.690;2022-11-18T05:36:52;8.30;99.90
19342;DHT22;9807;48.258;12.690;2022-11-18T05:39:21;8.20;99.90
19342;DHT22;9807;48.258;12.690;2022-11-18T05:42:10;8.10;99.90
19342;DHT22;9807;48.258;12.690;2022-11-18T05:44:55;8.00;99.90
19342;DHT22;9807;48.258;12.690;2022-11-18T05:47:21;7.90;99.90
19342;DHT22;9807;48.258;12.690;2022-11-18T05:49:49;7.90;99.90
19342;DHT22;9807;48.258;12.690;2022-11-18T05:52:15;8.00;99.90
19342;DHT22;9807;48.258;12.690;2022-11-18T05:54:46;8.10;99.90
19342;DHT22;9807;48.258;12.690;2022-11-18T05:57:13;8.30;99.90
19342;DHT22;9807;48.258;12.690;2022-11-18T05:59:39;8.50;99.90
19342;DHT22;9807;48.258;12.690;2022-11-18T06:02:15;8.50;99.90
19342;DHT22;9807;48.258;12.690;2022-11-18T06:04:47;8.60;99.90
19342;DHT22;9807;48.258;12.690;2022-11-18T06:07:20;8.70;99.90
19342;DHT22;9807;48.258;12.690;2022-11-18T06:09:53;8.60;99.90
19342;DHT22;9807;48.258;12.690;2022-11-18T06:12:26;8.80;99.90
19342;DHT22;9807;48.258;12.690;2022-11-18T06:14:57;8.80;99.90
19342;DHT22;9807;48.258;12.690;2022-11-18T06:17:28;8.90;99.90
19342;DHT22;9807;48.258;12.690;2022-11-18T06:19:56;9.10;99.90
19342;DHT22;9807;48.258;12.690;2022-11-18T06:22:23;9.20;99.90
19342;DHT22;9807;48.258;12.690;2022-11-18T06:24:49;9.30;99.90
19342;DHT22;9807;48.258;12.690;2022-11-18T06:27:16;9.30;99.90
19342;DHT22;9807;48.258;12.690;2022-11-18T06:29:45;9.30;99.90
19342;DHT22;9807;48.258;12.690;2022-11-18T06:32:12;9.40;99.90
19342;DHT22;9807;48.258;12.690;2022-11-18T06:34:40;9.50;99.90
19342;DHT22;9807;48.258;12.690;2022-11-18T06:37:17;9.60;99.90
19342;DHT22;9807;48.258;12.690;2022-11-18T06:39:45;9.70;99.90
19342;DHT22;9807;48.258;12.690;2022-11-18T06:42:12;9.80;99.90
19342;DHT22;9807;48.258;12.690;2022-11-18T06:44:57;10.00;99.90
19342;DHT22;9807;48.258;12.690;2022-11-18T06:47:23;10.10;99.90
19342;DHT22;9807;48.258;12.690;2022-11-18T06:49:52;10.20;99.90
19342;DHT22;9807;48.258;12.690;2022-11-18T06:52:21;10.20;99.90
19342;DHT22;9807;48.258;12.690;2022-11-18T06:54:47;10.20;99.90
19342;DHT22;9807;48.258;12.690;2022-11-18T09:27:48;8.90;99.90
19342;DHT22;9807;48.258;12.690;2022-11-18T09:30:17;9.00;99.90
19342;DHT22;9807;48.258;12.690;2022-11-18T09:32:43;8.80;99.90
19342;DHT22;9807;48.258;12.690;2022-11-18T09:35:11;8.90;99.90
19342;DHT22;9807;48.258;12.690;2022-11-18T09:37:37;8.70;99.90
19342;DHT22;9807;48.258;12.690;2022-11-18T09:40:13;8.70;99.90
19342;DHT22;9807;48.258;12.690;2022-11-18T09:43:12;8.60;99.90
19342;DHT22;9807;48.258;12.690;2022-11-18T09:45:44;8.50;99.90
19342;DHT22;9807;48.258;12.690;2022-11-18T09:48:28;8.50;99.90
19342;DHT22;9807;48.258;12.690;2022-11-18T09:51:13;8.50;99.90
19342;DHT22;9807;48.258;12.690;2022-11-18T09:53:41;8.50;99.90
19342;DHT22;9807;48.258;12.690;2022-11-18T09:56:15;8.50;99.90
19342;DHT22;9807;48.258;12.690;2022-11-18T09:58:57;8.50;99.90
19342;DHT22;9807;48.258;12.690;2022-11-18T10:01:31;8.60;99.90
19342;DHT22;9807;48.258;12.690;2022-11-18T10:04:00;8.60;99.90
19342;DHT22;9807;48.258;12.690;2022-11-18T10:06:32;8.70;99.90
19342;DHT22;9807;48.258;12.690;2022-11-18T10:20:51;8.80;99.90
19342;DHT22;9807;48.258;12.690;2022-11-18T10:23:31;8.70;99.90
19342;DHT22;9807;48.258;12.690;2022-11-18T10:25:57;8.70;99.90
19342;DHT22;9807;48.258;12.690;2022-11-18T10:28:26;8.60;99.90
19342;DHT22;9807;48.258;12.690;2022-11-18T10:31:03;8.50;99.90
19342;DHT22;9807;48.258;12.690;2022-11-18T10:33:29;8.50;99.90
19342;DHT22;9807;48.258;12.690;2022-11-18T10:38:39;8.40;99.90
19342;DHT22;9807;48.258;12.690;2022-11-18T10:41:12;8.40;99.90
19342;DHT22;9807;48.258;12.690;2022-11-18T10:43:47;8.40;99.90
19342;DHT22;9807;48.258;12.690;2022-11-18T10:46:25;8.30;99.90
19342;DHT22;9807;48.258;12.690;2022-11-18T10:49:11;8.40;99.90
19342;DHT22;9807;48.258;12.690;2022-11-18T10:54:24;8.50;99.90
19342;DHT22;9807;48.258;12.690;2022-11-18T10:56:56;8.50;99.90
19342;DHT22;9807;48.258;12.690;2022-11-18T10:59:32;8.60;99.90
19342;DHT22;9807;48.258;12.690;2022-11-18T11:04:46;8.60;99.90
19342;DHT22;9807;48.258;12.690;2022-11-18T11:07:19;8.70;99.90
19342;DHT22;9807;48.258;12.690;2022-11-18T11:12:59;8.80;99.90
19342;DHT22;9807;48.258;12.690;2022-11-18T11:15:30;8.80;99.90
19342;DHT22;9807;48.258;12.690;2022-11-18T11:18:03;8.80;99.90
19342;DHT22;9807;48.258;12.690;2022-11-18T11:20:54;8.90;99.90
19342;DHT22;9807;48.258;12.690;2022-11-18T11:23:23;9.00;99.90
19342;DHT22;9807;48.258;12.690;2022-11-18T11:26:00;8.90;99.90
19342;DHT22;9807;48.258;12.690;2022-11-18T11:28:35;8.90;99.90
19342;DHT22;9807;48.258;12.690;2022-11-18T11:36:50;8.90;99.90
19342;DHT22;9807;48.258;12.690;2022-11-18T11:42:12;8.70;99.90
19342;DHT22;9807;48.258;12.690;2022-11-18T11:45:04;8.60;99.90
19342;DHT22;9807;48.258;12.690;2022-11-18T11:48:06;8.60;99.90
19342;DHT22;9807;48.258;12.690;2022-11-18T12:04:44;8.50;99.90
19342;DHT22;9807;48.258;12.690;2022-11-18T12:07:24;8.40;99.90
19342;DHT22;9807;48.258;12.690;2022-11-18T12:10:04;8.30;99.90
19342;DHT22;9807;48.258;12.690;2022-11-18T12:12:52;8.30;99.90
19342;DHT22;9807;48.258;12.690;2022-11-18T12:21:03;8.30;99.90
19342;DHT22;9807;48.258;12.690;2022-11-18T12:23:29;8.40;99.90
19342;DHT22;9807;48.258;12.690;2022-11-18T12:26:07;8.40;99.90
19342;DHT22;9807;48.258;12.690;2022-11-18T12:28:42;8.50;99.90
19342;DHT22;9807;48.258;12.690;2022-11-18T12:38:53;8.60;99.90
19342;DHT22;9807;48.258;12.690;2022-11-18T12:44:24;8.60;99.90
19342;DHT22;9807;48.258;12.690;2022-11-18T12:46:52;8.60;99.90
19342;DHT22;9807;48.258;12.690;2022-11-18T12:51:57;8.70;99.90
19342;DHT22;9807;48.258;12.690;2022-11-18T12:57:18;8.60;99.90
19342;DHT22;9807;48.258;12.690;2022-11-18T12:59:44;8.60;99.90
19342;DHT22;9807;48.258;12.690;2022-11-18T13:04:36;8.70;99.90
19342;DHT22;9807;48.258;12.690;2022-11-18T13:07:05;8.70;99.90
19342;DHT22;9807;48.258;12.690;2022-11-18T13:09:53;8.70;99.90
19342;DHT22;9807;48.258;12.690;2022-11-18T13:12:20;8.70;99.90
19342;DHT22;9807;48.258;12.690;2022-11-18T13:14:46;8.70;99.90
19342;DHT22;9807;48.258;12.690;2022-11-18T13:17:38;8.70;99.90
19342;DHT22;9807;48.258;12.690;2022-11-18T13:20:31;8.80;99.90
19342;DHT22;9807;48.258;12.690;2022-11-18T13:23:00;8.80;99.90
19342;DHT22;9807;48.258;12.690;2022-11-18T15:32:31;6.90;99.90
19342;DHT22;9807;48.258;12.690;2022-11-18T15:35:14;7.00;99.90
19342;DHT22;9807;48.258;12.690;2022-11-18T15:38:12;6.90;99.90
19342;DHT22;9807;48.258;12.690;2022-11-18T15:41:34;6.90;99.90
19342;DHT22;9807;48.258;12.690;2022-11-18T15:44:07;6.90;99.90
19342;DHT22;9807;48.258;12.690;2022-11-18T15:46:36;6.90;99.90
19342;DHT22;9807;48.258;12.690;2022-11-18T15:49:13;6.90;99.90
19342;DHT22;9807;48.258;12.690;2022-11-18T15:51:42;7.00;99.90
19342;DHT22;9807;48.258;12.690;2022-11-18T15:54:11;6.90;99.90
19342;DHT22;9807;48.258;12.690;2022-11-18T15:56:55;6.90;99.90
19342;DHT22;9807;48.258;12.690;2022-11-18T16:00:21;6.90;99.90
19342;DHT22;9807;48.258;12.690;2022-11-18T16:03:44;6.80;99.90
19342;DHT22;9807;48.258;12.690;2022-11-18T16:06:34;6.80;99.90
19342;DHT22;9807;48.258;12.690;2022-11-18T16:09:03;6.90;99.90
19342;DHT22;9807;48.258;12.690;2022-11-18T16:11:30;6.90;99.90
19342;DHT22;9807;48.258;12.690;2022-11-18T16:14:16;6.80;99.90
19342;DHT22;9807;48.258;12.690;2022-11-18T16:16:59;6.80;99.90
19342;DHT22;9807;48.258;12.690;2022-11-18T16:19:39;6.80;99.90
19342;DHT22;9807;48.258;12.690;2022-11-18T18:43:52;7.30;99.90
19342;DHT22;9807;48.258;12.690;2022-11-18T18:58:07;7.30;99.90
19342;DHT22;9807;48.258;12.690;2022-11-18T19:13:45;7.40;99.90
19342;DHT22;9807;48.258;12.690;2022-11-18T19:16:50;7.40;99.90
19342;DHT22;9807;48.258;12.690;2022-11-18T19:19:29;7.40;99.90
19342;DHT22;9807;48.258;12.690;2022-11-18T19:22:47;7.30;99.90
19342;DHT22;9807;48.258;12.690;2022-11-18T19:25:39;7.40;99.90
19342;DHT22;9807;48.258;12.690;2022-11-18T19:28:12;7.30;99.90
